Latest Weather Observations for Point Perpendicular

IDN60801

Issued at 2:43 pm EDT Tuesday 18 January 2022 (issued every 10 minutes, with the page automatically refreshed every 10 minutes)

About weather observations | Map of weather stations | Latest weather observations for NSW | Other Formats
Station Details ID: 068151 Name: POINT PERPENDICULAR AWS Lat: -35.09 Lon: 150.80 Height: 85.0 m
Data from the previous 72 hours. | See also: Recent months at Point Perpendicular
Date/Time
EDT
Temp
°C
App
Temp
°C
Dew
Point
°C
Rel
Hum
%
Delta-T
°C
Wind Press
QNH
hPa
Press
MSL
hPa
Rain since
9am
mm
Dir  Spd
km/h
Gust
km/h
Spd
kts
Gust
kts
18/02:30pm 19.0 18.6 19.0 100 0.0 S 19 28 10 15 1014.2 1013.8 1.2
18/02:00pm 19.4 - - - - S 20 32 11 17 1014.1 1013.7 1.2
18/01:30pm 18.4 - - - - SSW 19 30 10 16 1014.5 1014.1 1.2
18/01:00pm 18.0 17.2 18.0 100 0.0 SW 19 32 10 17 1014.7 1014.3 1.0
18/12:30pm 18.0 16.6 18.0 100 0.0 SW 22 32 12 17 1014.8 1014.5 1.0
18/12:00pm 18.3 - - - - SW 20 30 11 16 1014.7 1014.3 0.8
18/11:30am 18.5 - - - - SW 19 30 10 16 1014.6 1014.2 0.6
18/11:00am 19.1 - - - - SW 17 26 9 14 1014.7 1014.3 0.6
18/10:30am 18.8 - - - - SSW 15 22 8 12 1014.7 1014.3 0.4
18/10:00am 19.3 19.8 19.2 99 0.1 SW 15 26 8 14 1014.5 1014.1 0.4
18/09:30am 19.2 18.9 19.2 100 0.0 SW 19 26 10 14 1014.3 1013.9 0.0
18/09:00am 19.4 20.0 19.4 100 0.0 SW 15 24 8 13 1014.0 1013.6 0.2
18/08:30am 19.5 19.8 19.5 100 0.0 SW 17 26 9 14 1013.8 1013.4 0.0
18/08:00am 19.5 19.2 19.5 100 0.0 SW 20 30 11 16 1013.5 1013.1 0.0
18/07:30am 19.7 19.5 19.7 100 0.0 SSW 20 30 11 16 1013.0 1012.6 0.0
18/07:00am 19.7 19.7 19.7 100 0.0 SSW 19 28 10 15 1012.8 1012.4 0.0
18/06:30am 19.6 19.3 19.6 100 0.0 SSW 20 30 11 16 1012.5 1012.1 0.0
18/06:00am 19.8 19.2 19.8 100 0.0 SSW 22 32 12 17 1012.2 1011.8 0.0
18/05:30am 20.2 20.4 20.2 100 0.0 SSW 19 28 10 15 1012.1 1011.7 0.0
18/05:00am 20.5 20.7 20.5 100 0.0 SSW 20 28 11 15 1011.6 1011.2 0.0
18/04:30am 20.4 20.5 20.4 100 0.0 SSW 20 30 11 16 1011.2 1010.8 0.0
18/04:00am 20.4 20.5 20.4 100 0.0 SSW 20 30 11 16 1010.8 1010.5 0.0
18/03:30am 20.5 20.3 20.5 100 0.0 SW 22 33 12 18 1010.9 1010.6 0.0
18/03:00am 20.5 20.3 20.5 100 0.0 SW 22 32 12 17 1010.9 1010.6 0.0
18/02:30am 21.2 21.3 21.2 100 0.0 SSW 22 32 12 17 1010.6 1010.3 0.0
18/02:00am 21.0 21.4 21.0 100 0.0 SSW 20 35 11 19 1010.7 1010.4 0.0
18/01:30am 21.5 22.4 21.5 100 0.0 WSW 19 26 10 14 1011.8 1011.4 0.0
18/01:00am 22.2 24.6 22.2 100 0.0 SW 13 20 7 11 1011.7 1011.3 0.0
18/12:30am 23.2 27.4 23.2 100 0.0 S 6 7 3 4 1011.4 1011.0 0.0
18/12:00am 24.0 28.7 24.0 100 0.0 W 6 15 3 8 1012.1 1011.7 0.0
 
Date/Time
EDT
Temp
°C
App
Temp
°C
Dew
Point
°C
Rel
Hum
%
Delta-T
°C
Wind Press
QNH
hPa
Press
MSL
hPa
Rain since
9am
mm
Dir  Spd
km/h
Gust
km/h
Spd
kts
Gust
kts
17/11:30pm 24.8 28.7 24.8 100 0.0 WSW 13 22 7 12 1011.9 1011.5 0.0
17/11:00pm 23.8 28.2 23.8 100 0.0 W 7 17 4 9 1012.0 1011.6 0.0
17/10:30pm 23.9 28.6 23.9 100 0.0 W 6 13 3 7 1012.2 1011.8 0.0
17/10:00pm 24.7 30.2 24.7 100 0.0 S 4 4 2 2 1011.3 1010.9 0.0
17/09:30pm 24.8 31.1 24.8 100 0.0 CALM 0 2 0 1 1011.4 1011.0 0.0
17/09:00pm 23.4 27.6 23.4 100 0.0 NNW 7 9 4 5 1011.3 1010.9 0.0
17/08:30pm 23.3 26.3 23.3 100 0.0 N 13 15 7 8 1010.7 1010.4 0.0
17/08:00pm 23.5 27.9 23.5 100 0.0 NNE 6 11 3 6 1010.3 1010.0 0.0
17/07:30pm 23.6 27.1 23.6 100 0.0 N 11 15 6 8 1010.0 1009.7 0.0
17/07:00pm 24.0 27.0 24.0 100 0.0 NNE 15 20 8 11 1009.4 1009.1 0.0
17/06:30pm 24.1 26.8 24.1 100 0.0 N 17 20 9 11 1009.0 1008.7 0.0
17/06:00pm 24.2 26.6 24.2 100 0.0 N 19 26 10 14 1008.8 1008.5 0.0
17/05:30pm 24.3 26.7 24.3 100 0.0 N 19 26 10 14 1008.8 1008.5 0.0
17/05:00pm 24.3 26.5 24.3 100 0.0 NNE 20 26 11 14 1008.5 1008.2 0.0
17/04:30pm 24.1 25.8 24.1 100 0.0 NNE 22 32 12 17 1008.3 1008.0 0.0
17/04:00pm 25.1 27.4 25.1 100 0.0 NNE 22 35 12 19 1008.3 1008.0 0.0
17/03:30pm 25.0 26.9 25.0 100 0.0 NNE 24 33 13 18 1008.4 1008.1 0.0
17/03:00pm 25.6 27.9 25.6 100 0.0 NNE 24 32 13 17 1008.5 1008.2 0.0
17/02:30pm 25.8 28.2 25.8 100 0.0 NNE 24 32 13 17 1008.6 1008.3 0.0
17/02:00pm 25.6 27.9 25.6 100 0.0 NNE 24 33 13 18 1008.8 1008.5 0.0
17/01:30pm 25.5 27.7 25.5 100 0.0 NNE 24 32 13 17 1009.1 1008.8 0.0
17/01:00pm 25.7 28.4 25.7 100 0.0 NNE 22 32 12 17 1009.4 1009.1 0.0
17/12:30pm 26.4 30.0 26.4 100 0.0 NNE 20 26 11 14 1009.7 1009.4 0.0
17/12:00pm 26.2 29.6 26.2 100 0.0 NNE 20 28 11 15 1010.0 1009.7 0.0
17/11:30am 24.3 25.8 24.3 100 0.0 NNE 24 30 13 16 1010.0 1009.7 0.0
17/11:00am 25.2 27.2 25.2 100 0.0 NE 24 32 13 17 1010.0 1009.7 0.0
17/10:30am 25.9 29.1 25.9 100 0.0 NNE 20 30 11 16 1010.2 1009.9 0.0
17/10:00am 25.0 28.2 25.0 100 0.0 NNE 17 26 9 14 1010.2 1009.9 0.0
17/09:30am 25.0 28.2 25.0 100 0.0 NNE 17 24 9 13 1010.2 1009.9 0.0
17/09:00am 24.0 27.4 24.0 100 0.0 NNE 13 19 7 10 1010.6 1010.3 0.4
17/08:30am 23.5 26.6 23.5 100 0.0 N 13 17 7 9 1010.5 1010.2 0.4
17/08:00am 22.2 24.9 22.2 100 0.0 N 11 17 6 9 1010.7 1010.4 0.4
17/07:30am 21.5 24.3 21.5 100 0.0 N 9 13 5 7 1010.3 1010.0 0.4
17/07:00am 20.4 22.6 20.4 100 0.0 N 9 11 5 6 1010.4 1010.1 0.4
17/06:30am 19.9 22.2 19.9 100 0.0 N 7 9 4 5 1008.9 1008.6 0.4
17/06:00am 19.5 21.8 19.5 100 0.0 N 6 6 3 3 1009.5 1009.2 0.4
17/05:30am 19.7 22.1 19.7 100 0.0 NNW 6 7 3 4 1009.8 1009.5 0.4
17/05:00am 20.1 22.7 20.1 100 0.0 NW 6 6 3 3 1009.9 1009.6 0.4
17/04:30am 20.5 24.1 20.5 100 0.0 W 2 4 1 2 1009.8 1009.5 0.4
17/04:00am 20.8 24.1 20.8 100 0.0 SSW 4 4 2 2 1009.9 1009.6 0.4
17/03:30am 20.6 24.2 20.6 100 0.0 SW 2 4 1 2 1010.0 1009.7 0.4
17/03:00am 20.9 24.3 20.9 100 0.0 WSW 4 6 2 3 1010.3 1010.0 0.4
17/02:30am 21.0 24.8 21.0 100 0.0 SW 2 4 1 2 1010.9 1010.6 0.4
17/02:00am 21.0 24.4 21.0 100 0.0 W 4 9 2 5 1011.0 1010.7 0.4
17/01:30am 21.6 25.4 21.6 100 0.0 WSW 4 6 2 3 1011.4 1011.0 0.4
17/01:00am 21.2 24.8 21.2 100 0.0 WSW 4 4 2 2 1011.4 1011.0 0.4
17/12:30am 21.4 25.4 21.4 100 0.0 W 2 4 1 2 1011.3 1010.9 0.4
17/12:00am 21.8 26.0 21.8 100 0.0 WSW 2 6 1 3 1011.3 1010.9 0.4
 
Date/Time
EDT
Temp
°C
App
Temp
°C
Dew
Point
°C
Rel
Hum
%
Delta-T
°C
Wind Press
QNH
hPa
Press
MSL
hPa
Rain since
9am
mm
Dir  Spd
km/h
Gust
km/h
Spd
kts
Gust
kts
16/11:30pm 21.9 25.8 21.9 100 0.0 W 4 6 2 3 1011.8 1011.4 0.4
16/11:00pm 22.3 26.0 22.3 100 0.0 S 6 9 3 5 1011.9 1011.5 0.4
16/10:30pm 22.2 25.3 22.2 100 0.0 S 9 11 5 6 1011.6 1011.2 0.4
16/10:00pm 22.1 25.7 22.1 100 0.0 SSW 6 7 3 4 1011.8 1011.4 0.4
16/09:30pm 22.0 25.4 22.0 100 0.0 SSW 7 9 4 5 1011.2 1010.8 0.4
16/09:00pm 22.1 25.6 22.1 100 0.0 S 7 9 4 5 1010.9 1010.6 0.4
16/08:30pm 22.1 25.7 22.1 100 0.0 S 6 9 3 5 1010.5 1010.2 0.4
16/08:00pm 22.3 25.9 22.3 100 0.0 S 7 11 4 6 1010.2 1009.9 0.4
16/07:30pm 22.4 25.6 22.4 100 0.0 SSE 9 15 5 8 1009.9 1009.6 0.4
16/07:00pm 22.5 25.8 22.5 100 0.0 SSE 9 17 5 9 1009.5 1009.2 0.4
16/06:30pm 22.6 25.2 22.6 100 0.0 SSE 13 19 7 10 1009.1 1008.8 0.4
16/06:00pm 22.9 25.6 22.9 100 0.0 SSE 13 19 7 10 1008.9 1008.6 0.4
16/05:30pm 23.5 26.2 23.5 100 0.0 SSE 15 19 8 10 1008.9 1008.6 0.4
16/05:00pm 23.4 25.7 23.4 100 0.0 S 17 22 9 12 1009.0 1008.7 0.4
16/04:30pm 23.4 25.7 23.4 100 0.0 SSE 17 24 9 13 1008.9 1008.6 0.4
16/04:00pm 23.2 25.4 23.2 100 0.0 S 17 24 9 13 1009.1 1008.8 0.4
16/03:30pm 23.3 25.9 23.3 100 0.0 S 15 22 8 12 1009.3 1009.0 0.4
16/03:00pm 23.2 25.4 23.2 100 0.0 SSW 17 24 9 13 1009.4 1009.1 0.4
16/02:30pm 22.9 24.5 22.9 100 0.0 SSW 19 24 10 13 1009.6 1009.3 0.4
16/02:00pm 22.5 24.3 22.5 100 0.0 S 17 24 9 13 1009.7 1009.4 0.4
16/01:30pm 20.9 22.2 20.9 100 0.0 SW 15 24 8 13 1010.3 1010.0 0.4
16/01:00pm 20.4 21.5 20.4 100 0.0 SSW 15 22 8 12 1010.2 1009.9 0.4
16/12:30pm 20.3 21.3 20.3 100 0.0 SSW 15 24 8 13 1010.4 1010.1 0.4
16/12:00pm 20.3 21.7 20.3 100 0.0 SW 13 19 7 10 1010.2 1009.9 0.4
16/11:30am 20.2 21.5 20.2 100 0.0 SW 13 19 7 10 1010.3 1010.0 0.4
16/11:00am 20.2 21.5 20.2 100 0.0 SW 13 20 7 11 1010.0 1009.7 0.4
16/10:30am 19.9 20.7 19.9 100 0.0 SW 15 24 8 13 1009.8 1009.5 0.4
16/10:00am 20.0 20.9 20.0 100 0.0 SW 15 24 8 13 1009.6 1009.3 0.2
16/09:30am 20.0 21.2 20.0 100 0.0 WSW 13 19 7 10 1009.5 1009.2 0.2
16/09:00am 20.1 21.4 20.1 100 0.0 SW 13 20 7 11 1009.5 1009.2 0.8
16/08:30am 20.4 21.8 20.4 100 0.0 SW 13 19 7 10 1009.2 1008.9 0.6
16/08:00am 20.5 22.7 20.5 100 0.0 SW 9 15 5 8 1008.9 1008.6 0.4
16/07:30am 20.6 22.9 20.6 100 0.0 WSW 9 15 5 8 1008.9 1008.6 0.4
16/07:00am 20.9 23.0 20.9 100 0.0 SW 11 19 6 10 1008.6 1008.3 0.4
16/06:30am 20.8 23.2 20.8 100 0.0 SW 9 15 5 8 1008.0 1007.7 0.4
16/06:00am 20.6 21.4 20.6 100 0.0 SW 17 24 9 13 1007.5 1007.2 0.4
16/05:30am 20.6 21.0 20.6 100 0.0 SSW 19 30 10 16 1007.0 1006.7 0.4
16/05:00am 20.3 20.4 20.3 100 0.0 SSW 20 28 11 15 1006.6 1006.3 0.2
16/04:30am 20.2 19.8 20.2 100 0.0 SSW 22 33 12 18 1006.0 1005.7 0.2
16/04:00am 20.3 19.2 20.3 100 0.0 SW 26 37 14 20 1005.7 1005.4 0.2
16/03:30am 20.4 18.2 20.4 100 0.0 SW 32 44 17 24 1004.9 1004.6 0.2
16/03:00am 20.5 19.1 20.5 100 0.0 SW 28 43 15 23 1005.0 1004.7 0.2
16/02:30am 20.7 19.1 20.7 100 0.0 SW 30 43 16 23 1004.9 1004.6 0.2
16/02:00am 20.9 20.1 20.9 100 0.0 SW 26 41 14 22 1005.1 1004.8 0.2
16/01:30am 21.4 21.6 21.4 100 0.0 SW 22 37 12 20 1005.0 1004.7 0.2
16/01:00am 21.7 22.7 21.7 100 0.0 SW 19 32 10 17 1005.4 1005.1 0.2
16/12:30am 21.7 22.7 21.7 100 0.0 SW 19 28 10 15 1005.5 1005.2 0.2
16/12:00am 22.0 23.5 22.0 100 0.0 WSW 17 26 9 14 1005.6 1005.3 0.2
 
Date/Time
EDT
Temp
°C
App
Temp
°C
Dew
Point
°C
Rel
Hum
%
Delta-T
°C
Wind Press
QNH
hPa
Press
MSL
hPa
Rain since
9am
mm
Dir  Spd
km/h
Gust
km/h
Spd
kts
Gust
kts
15/11:30pm 22.1 24.4 22.1 100 0.0 WSW 13 19 7 10 1005.4 1005.1 0.2
15/11:00pm 22.1 24.8 22.1 100 0.0 WSW 11 15 6 8 1005.3 1005.0 0.2
15/10:30pm 22.4 24.9 22.4 100 0.0 NNW 13 17 7 9 1004.8 1004.5 0.2
15/10:00pm 22.9 24.9 22.9 100 0.0 NNE 17 20 9 11 1004.3 1003.9 0.2
15/09:30pm 23.0 25.0 23.0 100 0.0 NNE 17 26 9 14 1003.7 1003.3 0.2
15/09:00pm 22.2 22.9 22.2 100 0.0 N 22 32 12 17 1003.8 1003.4 0.2
15/08:30pm 22.1 22.3 22.1 100 0.0 NNE 24 35 13 19 1004.0 1003.6 0.2
15/08:00pm 22.5 22.9 22.5 100 0.0 NNE 24 33 13 18 1003.6 1003.2 0.2
15/07:30pm 22.3 21.9 22.3 100 0.0 NNE 28 37 15 20 1002.5 1002.1 0.2
15/07:00pm 23.0 22.6 23.0 100 0.0 NNE 30 39 16 21 1002.5 1002.1 0.2
15/06:51pm 23.1 22.7 23.1 100 0.0 NNE 30 43 16 23 1003.1 1002.7 0.2
15/06:39pm 23.6 23.1 23.6 100 0.0 NNE 32 46 17 25 1005.5 1005.2 0.2
15/06:30pm 24.0 24.1 24.0 100 0.0 NNE 30 43 16 23 1003.2 1002.8 0.2
15/06:00pm 24.7 25.7 24.7 100 0.0 NNE 28 39 15 21 1002.6 1002.2 0.2
15/05:30pm 23.7 24.4 23.7 100 0.0 N 26 37 14 20 1002.9 1002.5 0.2
15/05:00pm 24.1 25.4 24.1 100 0.0 N 24 35 13 19 1002.9 1002.5 0.2
15/04:30pm 25.2 25.7 25.2 100 0.0 NNE 32 43 17 23 1002.2 1001.8 0.2
15/04:00pm 26.1 27.2 26.1 100 0.0 NNE 32 44 17 24 1002.4 1002.0 0.2
15/03:30pm 27.3 30.3 27.3 100 0.0 NNE 26 37 14 20 1002.9 1002.5 0.2
15/03:00pm 26.5 29.4 26.5 100 0.0 NNE 24 41 13 22 1003.1 1002.7 0.2

Other formats

Comma delimited format used in spreadsheet applications
http://www.bom.gov.au/fwo/IDN60801/IDN60801.95940.axf

JavaScript Object Notation format (JSON) in row-major order
http://www.bom.gov.au/fwo/IDN60801/IDN60801.95940.json

Data quality

Most of these data are generated automatically and are frequently updated. Quality checks on data are not normally performed. It is possible for incorrect values to appear. Refer to information at About Latest Weather Observations and please check the disclaimer before using these data.